Time;durP1;ratioP1;P1;durP2;ratioP2;P2;SDS_P1;SDS_P2;PMS_P1;PMS_P2;Temp;Humidity;BMP_temperature;BMP_pressure;BME280_temperature;BME280_humidity;BME280_pressure;Samples;Min_cycle;Max_cycle;Signal;HPM_P1;HPM_P2
2022/03/13 00:01:11;;;;;;;5.97;2.70;;;;;;;;;;5055723;28;20021;-61
2022/03/13 00:03:38;;;;;;;5.55;2.50;;;;;;;;;;5054864;28;20033;-61
2022/03/13 00:06:04;;;;;;;5.45;2.60;;;;;;;;;;5055170;28;20389;-61
2022/03/13 00:08:32;;;;;;;4.75;2.60;;;;;;;;;;5054857;28;20556;-61
2022/03/13 00:10:58;;;;;;;5.95;2.70;;;;;;;;;;5055468;28;20036;-61
2022/03/13 00:13:30;;;;;;;4.97;2.50;;;;;;;;;;5055234;28;20025;-61
2022/03/13 00:15:56;;;;;;;6.60;2.80;;;;;;;;;;5055379;28;20082;-61
2022/03/13 00:18:22;;;;;;;4.80;2.40;;;;;;;;;;5054926;28;20021;-61
2022/03/13 00:20:49;;;;;;;5.78;2.50;;;;;;;;;;5055150;28;20371;-61
2022/03/13 00:23:15;;;;;;;5.93;2.70;;;;;;;;;;5053333;28;20033;-61
2022/03/13 00:25:42;;;;;;;6.20;2.70;;;;;;;;;;5055141;28;20044;-61
2022/03/13 00:28:08;;;;;;;7.55;2.60;;;;;;;;;;5054739;28;20025;-61
2022/03/13 00:30:35;;;;;;;6.60;2.58;;;;;;;;;;5055011;28;20056;-61
2022/03/13 00:33:01;;;;;;;5.88;2.40;;;;;;;;;;5055331;28;20021;-61
2022/03/13 00:35:28;;;;;;;5.07;2.50;;;;;;;;;;5054615;28;20093;-62
2022/03/13 00:37:55;;;;;;;5.43;2.58;;;;;;;;;;5054386;28;20021;-61
2022/03/13 00:40:21;;;;;;;5.00;2.58;;;;;;;;;;5054530;28;20029;-62
2022/03/13 00:42:48;;;;;;;3.45;2.40;;;;;;;;;;5054611;28;20044;-62
2022/03/13 00:45:14;;;;;;;5.78;2.60;;;;;;;;;;5054461;28;20386;-61
2022/03/13 00:47:40;;;;;;;4.97;2.50;;;;;;;;;;5054519;28;20127;-61
2022/03/13 00:50:06;;;;;;;5.45;2.45;;;;;;;;;;5054393;28;20025;-62
2022/03/13 00:52:32;;;;;;;4.47;2.60;;;;;;;;;;5054486;28;20020;-62
2022/03/13 00:54:58;;;;;;;5.55;2.50;;;;;;;;;;5054384;28;20466;-61
2022/03/13 00:57:24;;;;;;;7.88;2.60;;;;;;;;;;5054379;28;20066;-61
2022/03/13 00:59:50;;;;;;;4.72;2.35;;;;;;;;;;5054544;28;20025;-61
2022/03/13 01:02:16;;;;;;;5.78;2.40;;;;;;;;;;5054285;28;20070;-62
2022/03/13 01:04:42;;;;;;;4.60;2.60;;;;;;;;;;5054015;28;20040;-62
2022/03/13 01:07:08;;;;;;;6.15;2.65;;;;;;;;;;5054003;28;20037;-62
2022/03/13 01:09:36;;;;;;;4.88;2.42;;;;;;;;;;5054062;28;20036;-62
2022/03/13 01:12:02;;;;;;;5.25;2.60;;;;;;;;;;5054328;28;20429;-61
2022/03/13 01:14:30;;;;;;;5.60;2.50;;;;;;;;;;5053124;28;20032;-61
2022/03/13 01:17:06;;;;;;;4.40;2.40;;;;;;;;;;5054517;28;20032;-61
2022/03/13 01:19:32;;;;;;;4.50;2.50;;;;;;;;;;5053858;28;20511;-61
2022/03/13 01:21:58;;;;;;;6.80;2.80;;;;;;;;;;5053713;28;20029;-61
2022/03/13 01:24:27;;;;;;;6.38;2.60;;;;;;;;;;5053753;28;20056;-62
2022/03/13 01:26:54;;;;;;;5.00;2.55;;;;;;;;;;5053954;28;20040;-62
2022/03/13 01:29:20;;;;;;;5.45;2.50;;;;;;;;;;5053700;28;20028;-61
2022/03/13 01:31:47;;;;;;;5.18;2.40;;;;;;;;;;5053760;28;20027;-62
2022/03/13 01:34:24;;;;;;;3.58;2.38;;;;;;;;;;5053856;28;20032;-63
2022/03/13 01:36:50;;;;;;;4.53;2.30;;;;;;;;;;5053398;28;20539;-63
2022/03/13 01:39:15;;;;;;;4.75;2.55;;;;;;;;;;5053727;28;20021;-62
2022/03/13 01:41:41;;;;;;;4.20;2.60;;;;;;;;;;5053418;28;20385;-61
2022/03/13 01:44:07;;;;;;;4.30;2.40;;;;;;;;;;5053473;28;20055;-61
2022/03/13 01:46:34;;;;;;;5.20;2.40;;;;;;;;;;5053191;28;20064;-62
2022/03/13 01:49:00;;;;;;;5.85;2.60;;;;;;;;;;5053527;28;20468;-62
2022/03/13 01:51:27;;;;;;;4.60;2.50;;;;;;;;;;5053264;28;20108;-61
2022/03/13 01:53:55;;;;;;;6.72;2.80;;;;;;;;;;5053299;28;20053;-61
2022/03/13 01:56:22;;;;;;;6.05;2.50;;;;;;;;;;5053006;28;20044;-61
2022/03/13 01:58:50;;;;;;;6.90;2.70;;;;;;;;;;5052488;28;20029;-63
2022/03/13 02:01:17;;;;;;;5.32;2.40;;;;;;;;;;5050983;28;20044;-60
2022/03/13 02:03:42;;;;;;;4.25;2.58;;;;;;;;;;5051563;28;20024;-61
2022/03/13 02:06:08;;;;;;;5.22;2.50;;;;;;;;;;5052104;28;20036;-60
2022/03/13 02:08:38;;;;;;;7.25;2.60;;;;;;;;;;5053164;28;20025;-60
2022/03/13 02:11:05;;;;;;;5.18;2.50;;;;;;;;;;5051791;28;20401;-61
2022/03/13 02:13:36;;;;;;;6.88;2.58;;;;;;;;;;5052940;28;20029;-62
2022/03/13 02:16:02;;;;;;;5.55;2.60;;;;;;;;;;5052762;28;20040;-61
2022/03/13 02:18:28;;;;;;;7.35;2.70;;;;;;;;;;5053072;28;20051;-60
2022/03/13 02:20:54;;;;;;;6.57;2.60;;;;;;;;;;5050790;28;20537;-61
2022/03/13 02:23:24;;;;;;;6.45;2.58;;;;;;;;;;5051821;28;20036;-62
2022/03/13 02:25:51;;;;;;;5.97;2.65;;;;;;;;;;5051198;28;20342;-61
2022/03/13 02:28:21;;;;;;;6.32;2.70;;;;;;;;;;5052348;28;20074;-63
2022/03/13 02:30:48;;;;;;;8.00;2.90;;;;;;;;;;5050909;28;20025;-62
2022/03/13 02:33:16;;;;;;;7.88;2.80;;;;;;;;;;5051960;28;20250;-63
2022/03/13 02:35:42;;;;;;;6.03;2.50;;;;;;;;;;5052638;28;20044;-63
2022/03/13 02:38:09;;;;;;;7.38;2.60;;;;;;;;;;5052714;28;20056;-62
2022/03/13 02:40:35;;;;;;;5.30;2.58;;;;;;;;;;5052844;28;20147;-62
2022/03/13 02:43:01;;;;;;;5.47;2.65;;;;;;;;;;5052646;28;20490;-61
2022/03/13 02:45:33;;;;;;;8.75;2.60;;;;;;;;;;5052455;28;20068;-62
2022/03/13 02:48:00;;;;;;;6.35;2.67;;;;;;;;;;5052368;28;20120;-62
2022/03/13 02:50:27;;;;;;;7.35;2.78;;;;;;;;;;5052627;28;20059;-62
2022/03/13 02:52:53;;;;;;;8.23;2.70;;;;;;;;;;5052613;28;20436;-62
2022/03/13 02:55:19;;;;;;;8.05;2.97;;;;;;;;;;5052664;28;20075;-63
2022/03/13 02:57:45;;;;;;;6.20;2.75;;;;;;;;;;5052582;28;20094;-62
2022/03/13 03:00:12;;;;;;;6.70;2.80;;;;;;;;;;5052629;28;20029;-62
2022/03/13 03:02:38;;;;;;;7.18;2.83;;;;;;;;;;5052415;28;20036;-62
2022/03/13 03:05:07;;;;;;;5.53;2.70;;;;;;;;;;5052728;28;20037;-62
2022/03/13 03:07:34;;;;;;;7.47;2.83;;;;;;;;;;5052454;28;20025;-62
2022/03/13 03:10:00;;;;;;;9.00;3.00;;;;;;;;;;5052561;28;20028;-62
2022/03/13 03:12:27;;;;;;;8.00;3.10;;;;;;;;;;5052287;28;20060;-63
2022/03/13 03:14:53;;;;;;;7.93;2.90;;;;;;;;;;5052589;28;20013;-62
2022/03/13 03:17:19;;;;;;;7.75;3.00;;;;;;;;;;5052172;28;20040;-63
2022/03/13 03:19:45;;;;;;;8.80;2.90;;;;;;;;;;5052565;28;20032;-63
2022/03/13 03:22:12;;;;;;;6.70;2.65;;;;;;;;;;5052248;28;20474;-62
2022/03/13 03:24:38;;;;;;;8.48;3.03;;;;;;;;;;5052270;28;20481;-62
2022/03/13 03:27:04;;;;;;;7.57;2.70;;;;;;;;;;5052404;28;20064;-63
2022/03/13 03:29:30;;;;;;;7.32;3.00;;;;;;;;;;5052384;28;20048;-63
2022/03/13 03:31:57;;;;;;;6.38;2.80;;;;;;;;;;5052325;28;20021;-61
2022/03/13 03:34:23;;;;;;;6.80;2.90;;;;;;;;;;5052469;28;20346;-63
2022/03/13 03:36:51;;;;;;;8.63;3.05;;;;;;;;;;5052346;28;20025;-62
2022/03/13 03:39:18;;;;;;;6.75;2.80;;;;;;;;;;5055838;28;20032;-62
2022/03/13 03:41:45;;;;;;;9.77;3.30;;;;;;;;;;5055711;28;20028;-62
2022/03/13 03:44:12;;;;;;;5.78;2.78;;;;;;;;;;5055792;28;20036;-63
2022/03/13 03:46:39;;;;;;;7.35;2.88;;;;;;;;;;5055273;28;20040;-62
2022/03/13 03:49:05;;;;;;;6.43;2.80;;;;;;;;;;5055585;28;20025;-63
2022/03/13 03:51:31;;;;;;;7.75;3.08;;;;;;;;;;5055593;28;20466;-61
2022/03/13 03:53:57;;;;;;;10.02;3.20;;;;;;;;;;5055583;28;20036;-62
2022/03/13 03:56:23;;;;;;;7.47;2.92;;;;;;;;;;5055796;28;20028;-62
2022/03/13 03:58:49;;;;;;;12.45;3.22;;;;;;;;;;5055489;28;20421;-62
2022/03/13 04:01:16;;;;;;;12.45;3.20;;;;;;;;;;5054126;28;20025;-62
2022/03/13 04:03:42;;;;;;;12.52;3.25;;;;;;;;;;5055331;28;20052;-63
2022/03/13 04:06:08;;;;;;;10.52;3.30;;;;;;;;;;5055586;28;20129;-62
2022/03/13 04:08:34;;;;;;;10.05;3.20;;;;;;;;;;5055309;28;20052;-62
2022/03/13 04:11:00;;;;;;;12.23;3.40;;;;;;;;;;5055307;28;20381;-62
2022/03/13 04:13:28;;;;;;;10.23;3.47;;;;;;;;;;5055174;28;20363;-62
2022/03/13 04:15:54;;;;;;;10.48;3.60;;;;;;;;;;5055295;28;20033;-61
2022/03/13 04:18:20;;;;;;;14.32;3.60;;;;;;;;;;5054997;28;20036;-63
2022/03/13 04:20:46;;;;;;;9.10;3.30;;;;;;;;;;5053752;28;20021;-62
2022/03/13 04:23:12;;;;;;;13.75;3.58;;;;;;;;;;5054951;28;20462;-63
2022/03/13 04:25:38;;;;;;;10.52;3.40;;;;;;;;;;5054911;28;20036;-62
2022/03/13 04:28:09;;;;;;;10.02;3.50;;;;;;;;;;5055097;28;20386;-63
2022/03/13 04:30:39;;;;;;;12.15;3.63;;;;;;;;;;5054628;28;20497;-63
2022/03/13 04:33:06;;;;;;;15.43;3.80;;;;;;;;;;5055121;28;20029;-62
2022/03/13 04:35:32;;;;;;;8.82;3.67;;;;;;;;;;5054564;28;20024;-62
2022/03/13 04:37:58;;;;;;;9.38;3.58;;;;;;;;;;5054890;28;20057;-62
2022/03/13 04:40:24;;;;;;;11.68;3.70;;;;;;;;;;5054733;28;20045;-62
2022/03/13 04:42:50;;;;;;;11.80;3.70;;;;;;;;;;5054526;28;20032;-62
2022/03/13 04:45:18;;;;;;;9.75;3.70;;;;;;;;;;5054136;28;20048;-63
2022/03/13 04:47:44;;;;;;;11.30;3.75;;;;;;;;;;5054829;28;20098;-63
2022/03/13 04:50:10;;;;;;;9.52;3.55;;;;;;;;;;5054628;28;20417;-62
2022/03/13 04:52:36;;;;;;;12.25;3.88;;;;;;;;;;5054416;28;20036;-62
2022/03/13 04:55:02;;;;;;;12.63;4.15;;;;;;;;;;5054414;28;20025;-62
2022/03/13 04:57:28;;;;;;;12.23;3.95;;;;;;;;;;5054397;28;20401;-63
2022/03/13 04:59:54;;;;;;;12.52;4.13;;;;;;;;;;5053995;28;20497;-63
2022/03/13 05:02:21;;;;;;;13.13;4.40;;;;;;;;;;5054187;28;20033;-62
2022/03/13 05:04:47;;;;;;;12.38;4.10;;;;;;;;;;5054616;28;20017;-64
2022/03/13 05:07:13;;;;;;;12.10;4.00;;;;;;;;;;5055189;28;20021;-63
2022/03/13 05:09:39;;;;;;;11.73;4.10;;;;;;;;;;5053379;28;20473;-63
2022/03/13 05:12:10;;;;;;;12.40;4.25;;;;;;;;;;5054713;28;20031;-63
2022/03/13 05:14:36;;;;;;;14.30;4.38;;;;;;;;;;5054154;28;20470;-62
2022/03/13 05:17:03;;;;;;;13.05;4.38;;;;;;;;;;5054739;28;20048;-63
2022/03/13 05:19:29;;;;;;;12.75;4.57;;;;;;;;;;5053942;28;20040;-61
2022/03/13 05:21:55;;;;;;;13.50;4.68;;;;;;;;;;5054100;28;20103;-61
2022/03/13 05:24:21;;;;;;;14.68;4.90;;;;;;;;;;5053985;28;20029;-62
2022/03/13 05:26:47;;;;;;;14.25;4.40;;;;;;;;;;5053624;28;20430;-62
2022/03/13 05:29:13;;;;;;;14.05;4.50;;;;;;;;;;5053619;28;20029;-61
2022/03/13 05:31:40;;;;;;;15.20;5.07;;;;;;;;;;5053531;28;20039;-61
2022/03/13 05:34:07;;;;;;;13.05;4.40;;;;;;;;;;5054098;28;20021;-61
2022/03/13 05:36:33;;;;;;;15.65;5.15;;;;;;;;;;5053659;28;20108;-60
2022/03/13 05:38:59;;;;;;;13.43;4.60;;;;;;;;;;5053676;28;20104;-61
2022/03/13 05:41:26;;;;;;;14.43;4.85;;;;;;;;;;5053399;28;20437;-61
2022/03/13 05:43:52;;;;;;;12.13;4.25;;;;;;;;;;5053299;28;20040;-62
2022/03/13 05:46:18;;;;;;;17.00;5.25;;;;;;;;;;5053468;28;20474;-62
2022/03/13 05:48:44;;;;;;;15.43;4.90;;;;;;;;;;5053593;28;20017;-62
2022/03/13 05:51:10;;;;;;;13.40;4.72;;;;;;;;;;5053284;28;20386;-62
2022/03/13 05:53:36;;;;;;;15.95;5.28;;;;;;;;;;5053412;28;20025;-62
2022/03/13 05:56:02;;;;;;;16.75;5.40;;;;;;;;;;5053380;28;20112;-62
2022/03/13 05:58:29;;;;;;;14.90;5.05;;;;;;;;;;5053122;28;20028;-61
2022/03/13 06:01:04;;;;;;;15.52;5.22;;;;;;;;;;5052660;28;20511;-62
2022/03/13 06:03:30;;;;;;;14.50;4.75;;;;;;;;;;5053215;28;20487;-63
2022/03/13 06:05:56;;;;;;;15.82;5.10;;;;;;;;;;5053082;28;20032;-63
2022/03/13 06:08:22;;;;;;;14.70;5.20;;;;;;;;;;5053256;28;20040;-63
2022/03/13 06:10:48;;;;;;;15.52;5.25;;;;;;;;;;5052787;28;20131;-62
2022/03/13 06:13:15;;;;;;;19.33;5.60;;;;;;;;;;5053126;28;20024;-63
2022/03/13 06:15:41;;;;;;;15.77;5.32;;;;;;;;;;5052971;28;20029;-63
2022/03/13 06:18:08;;;;;;;16.65;5.30;;;;;;;;;;5053114;28;20032;-63
2022/03/13 06:20:34;;;;;;;16.42;5.32;;;;;;;;;;5053120;28;20414;-61
2022/03/13 06:23:00;;;;;;;13.55;4.85;;;;;;;;;;5053073;28;20059;-62
2022/03/13 06:25:26;;;;;;;16.67;5.40;;;;;;;;;;5052730;28;20068;-63
2022/03/13 06:27:52;;;;;;;15.52;5.57;;;;;;;;;;5052717;28;20079;-63
2022/03/13 06:30:20;;;;;;;15.88;4.93;;;;;;;;;;5053064;28;20111;-63
2022/03/13 06:32:48;;;;;;;15.55;5.53;;;;;;;;;;5053069;28;20032;-62
2022/03/13 06:35:14;;;;;;;16.95;5.82;;;;;;;;;;5052868;28;20033;-63
2022/03/13 06:37:41;;;;;;;15.40;5.57;;;;;;;;;;5052699;28;20029;-63
2022/03/13 06:40:10;;;;;;;17.52;5.70;;;;;;;;;;5052608;28;20044;-63
2022/03/13 06:42:37;;;;;;;17.67;5.22;;;;;;;;;;5052463;28;20021;-63
2022/03/13 06:45:03;;;;;;;16.17;5.32;;;;;;;;;;5052841;28;20098;-63
2022/03/13 06:47:29;;;;;;;15.18;5.35;;;;;;;;;;5050480;28;20064;-63
2022/03/13 06:49:55;;;;;;;16.45;5.80;;;;;;;;;;5051354;28;20104;-62
2022/03/13 06:52:21;;;;;;;15.90;5.50;;;;;;;;;;5052577;28;20420;-62
2022/03/13 06:54:47;;;;;;;16.65;5.70;;;;;;;;;;5052585;28;20071;-62
2022/03/13 06:57:15;;;;;;;15.23;5.13;;;;;;;;;;5052595;28;20027;-63
2022/03/13 06:59:42;;;;;;;17.95;5.80;;;;;;;;;;5052590;28;20068;-63
2022/03/13 07:02:10;;;;;;;16.63;5.80;;;;;;;;;;5052401;28;20056;-63
2022/03/13 07:04:36;;;;;;;17.80;5.97;;;;;;;;;;5052847;28;20025;-63
2022/03/13 07:07:02;;;;;;;18.65;5.80;;;;;;;;;;5052697;28;20112;-63
2022/03/13 07:09:28;;;;;;;18.50;5.70;;;;;;;;;;5052654;28;20017;-63
2022/03/13 07:11:54;;;;;;;17.55;5.93;;;;;;;;;;5052346;28;20040;-63
2022/03/13 07:14:21;;;;;;;16.30;5.70;;;;;;;;;;5056253;28;20047;-63
2022/03/13 07:16:47;;;;;;;16.88;5.63;;;;;;;;;;5056525;28;20036;-63
2022/03/13 07:19:13;;;;;;;17.23;5.75;;;;;;;;;;5056311;28;20033;-63
2022/03/13 07:21:39;;;;;;;16.33;5.60;;;;;;;;;;5056151;28;20021;-62
2022/03/13 07:24:05;;;;;;;16.65;5.30;;;;;;;;;;5056195;28;20025;-63
2022/03/13 07:26:31;;;;;;;15.50;5.32;;;;;;;;;;5056207;28;20033;-63
2022/03/13 07:28:57;;;;;;;16.35;5.80;;;;;;;;;;5056177;28;20401;-63
2022/03/13 07:31:23;;;;;;;16.65;5.50;;;;;;;;;;5056190;28;20074;-63
2022/03/13 07:33:49;;;;;;;15.60;5.53;;;;;;;;;;5056221;28;20385;-63
2022/03/13 07:36:15;;;;;;;16.13;5.35;;;;;;;;;;5056156;28;20107;-63
2022/03/13 07:38:41;;;;;;;17.40;6.18;;;;;;;;;;5055594;28;20103;-62
2022/03/13 07:41:07;;;;;;;15.13;5.57;;;;;;;;;;5056146;28;20059;-63
2022/03/13 07:43:34;;;;;;;18.10;5.78;;;;;;;;;;5055812;28;20518;-62
2022/03/13 07:46:00;;;;;;;15.52;5.45;;;;;;;;;;5055826;28;20394;-62
2022/03/13 07:48:27;;;;;;;17.77;5.43;;;;;;;;;;5055893;28;20496;-61
2022/03/13 07:50:53;;;;;;;17.83;5.80;;;;;;;;;;5055973;28;20029;-62
2022/03/13 07:53:19;;;;;;;16.30;5.75;;;;;;;;;;5055265;28;20515;-62
2022/03/13 07:55:45;;;;;;;18.42;5.70;;;;;;;;;;5037730;28;20021;-61
2022/03/13 07:58:11;;;;;;;15.18;5.20;;;;;;;;;;5055570;28;20033;-63
2022/03/13 08:00:37;;;;;;;16.25;5.70;;;;;;;;;;5055556;28;20029;-62
2022/03/13 08:03:03;;;;;;;18.45;5.65;;;;;;;;;;5055295;28;20029;-62
2022/03/13 08:05:29;;;;;;;16.25;5.70;;;;;;;;;;5055415;28;20539;-62
2022/03/13 08:07:56;;;;;;;15.80;5.20;;;;;;;;;;5055000;28;20037;-62
2022/03/13 08:10:23;;;;;;;14.82;5.03;;;;;;;;;;5055496;28;20474;-62
2022/03/13 08:12:49;;;;;;;16.65;5.55;;;;;;;;;;5055302;28;20017;-62
2022/03/13 08:15:16;;;;;;;16.88;5.30;;;;;;;;;;5053648;28;20056;-63
2022/03/13 08:17:42;;;;;;;16.00;5.47;;;;;;;;;;5053625;28;20029;-63
2022/03/13 08:20:10;;;;;;;16.38;5.30;;;;;;;;;;5055449;28;20412;-62
2022/03/13 08:22:37;;;;;;;15.98;5.22;;;;;;;;;;5053145;28;20025;-63
2022/03/13 08:25:03;;;;;;;17.45;5.30;;;;;;;;;;5053235;28;20506;-63
2022/03/13 08:27:29;;;;;;;17.50;5.35;;;;;;;;;;5054910;28;20025;-63
2022/03/13 08:29:55;;;;;;;15.85;5.30;;;;;;;;;;5054844;28;20390;-63
2022/03/13 08:32:21;;;;;;;16.33;5.40;;;;;;;;;;5054930;28;20033;-63
2022/03/13 08:34:48;;;;;;;15.77;4.97;;;;;;;;;;5054860;28;20032;-62
2022/03/13 08:37:15;;;;;;;15.10;4.85;;;;;;;;;;5054678;28;20497;-61
2022/03/13 08:39:42;;;;;;;18.17;5.43;;;;;;;;;;5054841;28;20029;-62
2022/03/13 08:42:08;;;;;;;16.17;4.93;;;;;;;;;;5054458;28;20061;-61
2022/03/13 08:44:34;;;;;;;16.17;5.13;;;;;;;;;;5054951;28;20021;-61
2022/03/13 08:47:00;;;;;;;15.00;4.70;;;;;;;;;;5054328;28;20481;-62
2022/03/13 08:49:27;;;;;;;14.45;4.93;;;;;;;;;;5054576;28;20029;-61
2022/03/13 08:51:53;;;;;;;15.30;5.15;;;;;;;;;;5054092;28;20021;-62
2022/03/13 08:54:19;;;;;;;15.95;5.13;;;;;;;;;;5054790;28;20033;-62
2022/03/13 08:56:46;;;;;;;13.70;4.72;;;;;;;;;;5054761;28;20068;-62
2022/03/13 08:59:15;;;;;;;14.68;4.75;;;;;;;;;;5054295;28;20029;-63
2022/03/13 09:01:41;;;;;;;13.55;4.35;;;;;;;;;;5054568;28;20033;-62
2022/03/13 09:04:07;;;;;;;13.63;4.45;;;;;;;;;;5054116;28;20032;-63
2022/03/13 09:06:33;;;;;;;14.70;4.80;;;;;;;;;;5054191;28;20036;-63
2022/03/13 09:08:59;;;;;;;13.77;4.70;;;;;;;;;;5054043;28;20378;-63
2022/03/13 09:11:25;;;;;;;14.30;4.55;;;;;;;;;;5054194;28;20021;-62
2022/03/13 09:13:51;;;;;;;12.80;4.80;;;;;;;;;;5054341;28;20033;-62
2022/03/13 09:16:17;;;;;;;15.50;4.68;;;;;;;;;;5054233;28;20033;-63
2022/03/13 09:18:43;;;;;;;14.63;4.40;;;;;;;;;;5054181;28;20052;-63
2022/03/13 09:21:09;;;;;;;12.07;4.43;;;;;;;;;;5053615;28;20037;-62
2022/03/13 09:23:36;;;;;;;13.85;4.57;;;;;;;;;;5053982;28;20071;-61
2022/03/13 09:26:02;;;;;;;13.10;4.22;;;;;;;;;;5053829;28;20037;-62
2022/03/13 09:28:29;;;;;;;12.70;4.43;;;;;;;;;;5053953;28;20534;-62
2022/03/13 09:30:55;;;;;;;15.27;4.50;;;;;;;;;;5053951;28;20048;-63
2022/03/13 09:33:21;;;;;;;13.75;4.32;;;;;;;;;;5053857;28;20484;-62
2022/03/13 09:35:48;;;;;;;11.50;4.22;;;;;;;;;;5052574;28;20100;-62
2022/03/13 09:38:16;;;;;;;11.15;4.30;;;;;;;;;;5053728;28;20104;-63
2022/03/13 09:40:42;;;;;;;12.85;4.15;;;;;;;;;;5053708;28;20013;-63
2022/03/13 09:43:08;;;;;;;14.60;4.57;;;;;;;;;;5052345;28;20048;-63
2022/03/13 09:45:34;;;;;;;12.23;4.15;;;;;;;;;;5053172;28;20052;-63
2022/03/13 09:48:04;;;;;;;13.55;4.35;;;;;;;;;;5053550;28;20056;-62
2022/03/13 09:50:30;;;;;;;12.82;4.30;;;;;;;;;;5053267;28;20048;-61
2022/03/13 09:52:56;;;;;;;14.27;4.00;;;;;;;;;;5053444;28;20405;-61
2022/03/13 09:55:22;;;;;;;8.65;3.72;;;;;;;;;;5053353;28;20033;-61
2022/03/13 09:57:48;;;;;;;12.35;4.03;;;;;;;;;;5053478;28;20029;-62
2022/03/13 10:00:18;;;;;;;10.73;4.03;;;;;;;;;;5053297;28;20017;-62
2022/03/13 10:02:45;;;;;;;12.73;4.20;;;;;;;;;;5053140;28;20029;-62
2022/03/13 10:05:12;;;;;;;11.23;3.90;;;;;;;;;;5051977;28;20079;-62
2022/03/13 10:07:52;;;;;;;12.63;4.03;;;;;;;;;;5053193;28;20056;-62
2022/03/13 10:10:18;;;;;;;12.55;4.30;;;;;;;;;;5053128;28;20043;-62
2022/03/13 10:12:46;;;;;;;12.60;4.00;;;;;;;;;;5052983;28;20029;-62
2022/03/13 10:15:13;;;;;;;14.25;4.22;;;;;;;;;;5053152;28;20101;-62
2022/03/13 10:17:40;;;;;;;11.18;3.80;;;;;;;;;;5052577;28;20033;-61
2022/03/13 10:20:12;;;;;;;13.15;3.90;;;;;;;;;;5053068;28;20075;-62
2022/03/13 10:22:38;;;;;;;10.98;4.00;;;;;;;;;;5052958;28;20059;-61
2022/03/13 10:25:05;;;;;;;10.30;3.70;;;;;;;;;;5052588;28;20056;-61
2022/03/13 10:27:34;;;;;;;10.77;3.78;;;;;;;;;;5052820;28;20136;-60
2022/03/13 10:30:08;;;;;;;12.63;4.28;;;;;;;;;;5052967;28;20027;-62
2022/03/13 10:32:35;;;;;;;11.88;4.00;;;;;;;;;;5052540;28;20112;-62
2022/03/13 10:35:04;;;;;;;12.82;3.97;;;;;;;;;;5052722;28;20477;-61
2022/03/13 10:37:33;;;;;;;10.90;3.78;;;;;;;;;;5053145;28;20033;-62
2022/03/13 10:40:10;;;;;;;10.02;3.60;;;;;;;;;;5052830;28;20021;-62
2022/03/13 10:42:43;;;;;;;11.18;3.80;;;;;;;;;;5052823;28;20029;-62
2022/03/13 10:45:10;;;;;;;11.27;3.88;;;;;;;;;;5052754;28;20028;-62
2022/03/13 10:47:37;;;;;;;14.85;3.83;;;;;;;;;;5055405;28;20029;-63
2022/03/13 10:50:03;;;;;;;17.48;4.18;;;;;;;;;;5056899;28;20094;-61
2022/03/13 10:52:43;;;;;;;18.27;4.20;;;;;;;;;;5056881;28;20036;-65
2022/03/13 10:55:16;;;;;;;17.23;4.25;;;;;;;;;;5056875;28;20025;-63
2022/03/13 10:57:53;;;;;;;23.65;4.50;;;;;;;;;;5055599;28;20036;-62
2022/03/13 11:00:22;;;;;;;18.13;4.32;;;;;;;;;;5056755;28;20363;-62
2022/03/13 11:02:48;;;;;;;16.60;4.30;;;;;;;;;;5056210;28;20036;-63
2022/03/13 11:05:15;;;;;;;19.55;4.50;;;;;;;;;;5057739;28;20029;-61
2022/03/13 11:07:41;;;;;;;11.98;3.75;;;;;;;;;;5056625;28;20032;-61
2022/03/13 11:10:08;;;;;;;12.30;3.80;;;;;;;;;;5049936;28;20017;-60
2022/03/13 11:12:35;;;;;;;14.75;3.90;;;;;;;;;;5053089;28;20491;-60
2022/03/13 11:15:02;;;;;;;12.50;3.90;;;;;;;;;;5053892;28;20053;-60
2022/03/13 11:17:33;;;;;;;12.68;3.47;;;;;;;;;;5055338;28;20470;-60
2022/03/13 11:19:59;;;;;;;12.55;4.13;;;;;;;;;;5055913;28;20029;-60
2022/03/13 11:22:26;;;;;;;15.80;3.60;;;;;;;;;;5053826;28;20086;-61
2022/03/13 11:24:53;;;;;;;10.93;3.63;;;;;;;;;;5052837;28;20036;-61
2022/03/13 11:27:20;;;;;;;10.73;3.42;;;;;;;;;;5053600;28;20021;-60
2022/03/13 11:29:47;;;;;;;9.25;3.50;;;;;;;;;;5055193;28;20078;-61
2022/03/13 11:32:32;;;;;;;9.05;3.40;;;;;;;;;;5055694;28;20029;-61
2022/03/13 11:35:21;;;;;;;12.10;3.33;;;;;;;;;;5055719;28;20025;-61
2022/03/13 11:37:53;;;;;;;14.45;3.70;;;;;;;;;;5045416;28;20402;-61
2022/03/13 11:40:29;;;;;;;17.83;3.70;;;;;;;;;;5055626;28;20487;-61
2022/03/13 11:42:59;;;;;;;17.55;3.75;;;;;;;;;;5055617;28;20388;-61
2022/03/13 11:45:34;;;;;;;10.37;3.40;;;;;;;;;;5054830;28;20108;-61
2022/03/13 11:48:13;;;;;;;21.75;3.58;;;;;;;;;;5055401;28;20755;-62
2022/03/13 11:50:52;;;;;;;12.27;3.42;;;;;;;;;;5055634;28;20021;-61
2022/03/13 11:53:19;;;;;;;13.35;3.60;;;;;;;;;;5037216;28;20028;-62
2022/03/13 11:55:58;;;;;;;18.40;3.85;;;;;;;;;;5054756;28;20025;-60
2022/03/13 11:58:40;;;;;;;12.40;3.60;;;;;;;;;;5054778;28;20064;-60
2022/03/13 12:01:07;;;;;;;15.23;3.92;;;;;;;;;;5055007;28;20083;-61
2022/03/13 12:03:33;;;;;;;14.30;3.55;;;;;;;;;;5054980;28;20112;-61
2022/03/13 12:06:00;;;;;;;15.13;3.70;;;;;;;;;;5054934;28;20033;-61
2022/03/13 12:08:45;;;;;;;15.05;3.70;;;;;;;;;;5054939;28;20147;-61
2022/03/13 12:11:35;;;;;;;14.98;3.72;;;;;;;;;;5054472;28;20112;-61
2022/03/13 12:14:01;;;;;;;15.10;3.80;;;;;;;;;;5054430;28;20512;-61
2022/03/13 12:16:27;;;;;;;15.80;3.50;;;;;;;;;;5054836;28;20478;-61
2022/03/13 12:18:59;;;;;;;13.73;3.60;;;;;;;;;;5054919;28;20048;-62
2022/03/13 12:21:26;;;;;;;15.00;3.50;;;;;;;;;;5036968;28;20048;-62
2022/03/13 12:23:52;;;;;;;16.17;4.05;;;;;;;;;;5054955;28;20029;-62
2022/03/13 12:26:23;;;;;;;15.57;3.50;;;;;;;;;;5053959;28;20063;-61
2022/03/13 12:28:50;;;;;;;12.20;3.65;;;;;;;;;;5052583;28;20501;-61
2022/03/13 12:31:18;;;;;;;14.98;3.60;;;;;;;;;;5054658;28;20108;-59
2022/03/13 12:33:48;;;;;;;17.10;3.90;;;;;;;;;;5055117;28;20323;-60
2022/03/13 12:36:14;;;;;;;13.10;3.33;;;;;;;;;;5054727;28;20032;-61
2022/03/13 12:38:43;;;;;;;17.23;3.85;;;;;;;;;;5054666;28;20056;-61
2022/03/13 12:41:10;;;;;;;19.73;3.72;;;;;;;;;;5054709;28;20104;-61
2022/03/13 12:43:49;;;;;;;16.08;3.40;;;;;;;;;;5054535;28;20017;-61
2022/03/13 12:46:16;;;;;;;17.98;3.53;;;;;;;;;;5054534;28;20053;-63
2022/03/13 12:48:49;;;;;;;12.40;3.33;;;;;;;;;;5054750;28;20024;-61
2022/03/13 12:51:41;;;;;;;13.88;3.40;;;;;;;;;;5054826;28;20044;-60
2022/03/13 12:54:09;;;;;;;14.10;3.55;;;;;;;;;;5054377;28;20053;-61
2022/03/13 12:56:43;;;;;;;14.10;3.22;;;;;;;;;;5054708;28;20094;-62
2022/03/13 12:59:09;;;;;;;17.63;3.50;;;;;;;;;;5054382;28;20025;-61
2022/03/13 13:01:36;;;;;;;14.38;3.50;;;;;;;;;;5054240;28;20020;-61
2022/03/13 13:04:02;;;;;;;17.58;3.33;;;;;;;;;;5054507;28;20075;-61
2022/03/13 13:06:35;;;;;;;17.83;3.33;;;;;;;;;;5054081;28;20482;-61
2022/03/13 13:09:02;;;;;;;14.43;3.28;;;;;;;;;;5054202;28;20020;-61
2022/03/13 13:11:33;;;;;;;18.17;3.80;;;;;;;;;;5053922;28;20040;-61
2022/03/13 13:14:01;;;;;;;13.35;3.28;;;;;;;;;;5054518;28;20024;-61
2022/03/13 13:16:31;;;;;;;15.63;3.30;;;;;;;;;;5053922;28;20040;-62
2022/03/13 13:18:58;;;;;;;17.77;3.20;;;;;;;;;;5054535;28;20528;-62
2022/03/13 13:21:39;;;;;;;12.13;3.10;;;;;;;;;;5035895;28;20119;-62
2022/03/13 13:24:32;;;;;;;12.68;3.75;;;;;;;;;;5054423;28;20025;-61
2022/03/13 13:26:58;;;;;;;13.38;3.38;;;;;;;;;;5053959;28;20397;-62
2022/03/13 13:29:37;;;;;;;10.75;3.30;;;;;;;;;;5053939;28;20021;-62
2022/03/13 13:32:36;;;;;;;10.85;3.30;;;;;;;;;;5053773;28;20033;-61
2022/03/13 13:35:10;;;;;;;14.57;3.08;;;;;;;;;;4993060;28;20032;-62
2022/03/13 13:37:56;;;;;;;11.25;3.13;;;;;;;;;;5053901;28;20048;-63
2022/03/13 13:40:22;;;;;;;12.70;3.10;;;;;;;;;;5053315;28;20028;-63
2022/03/13 13:42:59;;;;;;;12.25;3.22;;;;;;;;;;5053588;28;20028;-62
2022/03/13 13:45:28;;;;;;;9.13;3.00;;;;;;;;;;5053333;28;20531;-64
2022/03/13 13:47:54;;;;;;;10.32;3.00;;;;;;;;;;5053962;28;20041;-64
2022/03/13 13:50:23;;;;;;;13.27;3.15;;;;;;;;;;5053672;28;20072;-64
2022/03/13 13:52:59;;;;;;;8.90;2.92;;;;;;;;;;5043930;28;20033;-61
2022/03/13 13:55:26;;;;;;;8.93;2.80;;;;;;;;;;5046787;28;20033;-62
2022/03/13 13:58:11;;;;;;;9.25;3.10;;;;;;;;;;5047383;28;20029;-61
2022/03/13 14:00:38;;;;;;;9.80;3.08;;;;;;;;;;5049788;28;20075;-62
2022/03/13 14:03:04;;;;;;;6.78;2.90;;;;;;;;;;5050014;28;20021;-66
2022/03/13 14:05:30;;;;;;;10.18;2.90;;;;;;;;;;5049615;28;20048;-63
2022/03/13 14:07:56;;;;;;;9.38;3.10;;;;;;;;;;5049666;28;20025;-61
2022/03/13 14:10:22;;;;;;;11.00;3.20;;;;;;;;;;5049408;28;20041;-61
2022/03/13 14:12:49;;;;;;;9.50;2.88;;;;;;;;;;5049740;28;20051;-62
2022/03/13 14:15:15;;;;;;;10.05;3.05;;;;;;;;;;5049703;28;20032;-62
2022/03/13 14:17:44;;;;;;;8.27;2.80;;;;;;;;;;5049626;28;20124;-61
2022/03/13 14:20:10;;;;;;;10.88;3.20;;;;;;;;;;5047320;28;20032;-60
2022/03/13 14:22:37;;;;;;;8.63;2.70;;;;;;;;;;5041040;28;20040;-61
2022/03/13 14:25:03;;;;;;;11.63;3.05;;;;;;;;;;5049250;28;20025;-64
2022/03/13 14:27:29;;;;;;;9.68;2.80;;;;;;;;;;5035306;28;20552;-62
2022/03/13 14:29:55;;;;;;;10.18;3.10;;;;;;;;;;5047659;28;20021;-62
2022/03/13 14:32:22;;;;;;;6.00;2.80;;;;;;;;;;5049795;28;20037;-62
2022/03/13 14:34:48;;;;;;;7.53;3.00;;;;;;;;;;5049853;28;20033;-62
2022/03/13 14:37:14;;;;;;;8.30;2.90;;;;;;;;;;5049618;28;20053;-64